createdAt,value
2022-12-13T00:01:48.257Z,-3.00
2022-12-13T00:04:18.962Z,-3.00
2022-12-13T00:06:47.699Z,-3.00
2022-12-13T00:09:16.968Z,-3.00
2022-12-13T00:11:46.651Z,-3.10
2022-12-13T00:14:16.255Z,-3.10
2022-12-13T00:16:47.216Z,-3.10
2022-12-13T00:19:17.602Z,-3.10
2022-12-13T00:21:45.998Z,-3.20
2022-12-13T00:24:14.634Z,-3.10
2022-12-13T00:26:43.305Z,-3.20
2022-12-13T00:29:13.907Z,-3.20
2022-12-13T00:34:33.112Z,-3.20
2022-12-13T00:37:01.975Z,-3.20
2022-12-13T00:39:30.443Z,-3.30
2022-12-13T00:41:59.852Z,-3.30
2022-12-13T00:44:28.398Z,-3.30
2022-12-13T00:46:56.644Z,-3.30
2022-12-13T00:49:25.363Z,-3.30
2022-12-13T00:51:55.160Z,-3.30
2022-12-13T00:54:24.122Z,-3.30
2022-12-13T00:56:53.150Z,-3.40
2022-12-13T00:59:21.890Z,-3.40
2022-12-13T01:01:50.414Z,-3.40
2022-12-13T01:04:18.679Z,-3.50
2022-12-13T01:06:50.040Z,-3.50
2022-12-13T01:09:21.949Z,-3.60
2022-12-13T01:11:51.939Z,-3.60
2022-12-13T01:14:20.581Z,-3.60
2022-12-13T01:16:49.222Z,-3.60
2022-12-13T01:19:18.673Z,-3.70
2022-12-13T01:21:47.252Z,-3.70
2022-12-13T01:24:16.002Z,-3.70
2022-12-13T01:26:45.650Z,-3.70
2022-12-13T01:29:14.839Z,-3.80
2022-12-13T01:31:43.577Z,-3.80
2022-12-13T01:34:13.373Z,-3.80
2022-12-13T01:36:43.378Z,-3.80
2022-12-13T01:39:14.655Z,-3.80
2022-12-13T01:41:46.833Z,-3.70
2022-12-13T01:44:52.616Z,-3.80
2022-12-13T01:47:25.244Z,-3.80
2022-12-13T01:49:56.527Z,-3.80
2022-12-13T01:52:32.153Z,-3.80
2022-12-13T01:55:03.528Z,-3.90
2022-12-13T01:57:36.236Z,-3.90
2022-12-13T02:00:08.310Z,-3.90
2022-12-13T02:02:37.518Z,-3.90
2022-12-13T02:05:11.397Z,-4.00
2022-12-13T02:07:42.352Z,-4.00
2022-12-13T02:10:11.758Z,-3.90
2022-12-13T02:12:43.000Z,-3.90
2022-12-13T02:15:14.968Z,-4.00
2022-12-13T02:17:59.776Z,-4.00
2022-12-13T02:21:10.081Z,-3.90
2022-12-13T02:24:28.845Z,-4.00
2022-12-13T02:27:12.150Z,-4.00
2022-12-13T02:30:17.200Z,-4.00
2022-12-13T02:33:21.936Z,-4.00
2022-12-13T02:35:56.240Z,-4.00
2022-12-13T02:38:32.985Z,-4.00
2022-12-13T02:41:11.670Z,-4.00
2022-12-13T02:43:47.473Z,-4.00
2022-12-13T02:46:21.289Z,-4.00
2022-12-13T02:48:52.605Z,-4.00
2022-12-13T02:51:21.837Z,-4.10
2022-12-13T02:53:50.338Z,-4.10
2022-12-13T02:56:19.118Z,-4.00
2022-12-13T02:58:53.107Z,-4.00
2022-12-13T03:01:40.203Z,-4.00
2022-12-13T03:04:15.588Z,-4.10
2022-12-13T03:06:57.730Z,-4.10
2022-12-13T03:09:40.026Z,-4.10
2022-12-13T03:12:37.327Z,-4.20
2022-12-13T03:15:16.650Z,-4.10
2022-12-13T03:17:52.135Z,-4.20
2022-12-13T03:20:25.940Z,-4.10
2022-12-13T03:22:55.461Z,-4.20
2022-12-13T03:25:31.500Z,-4.10
2022-12-13T03:28:02.105Z,-4.10
2022-12-13T03:30:31.818Z,-4.10
2022-12-13T03:33:02.236Z,-4.10
2022-12-13T03:35:34.129Z,-4.20
2022-12-13T03:38:12.585Z,-4.10
2022-12-13T03:40:50.820Z,-4.10
2022-12-13T03:43:22.303Z,-4.20
2022-12-13T03:45:51.351Z,-4.10
2022-12-13T03:48:23.057Z,-4.20
2022-12-13T03:50:52.910Z,-4.20
2022-12-13T03:53:23.078Z,-4.20
2022-12-13T03:56:02.865Z,-4.30
2022-12-13T03:58:36.640Z,-4.30
2022-12-13T04:01:07.706Z,-4.30
2022-12-13T04:03:38.187Z,-4.40
2022-12-13T04:06:06.806Z,-4.30
2022-12-13T04:08:35.427Z,-4.30
2022-12-13T04:11:24.847Z,-4.20
2022-12-13T04:13:52.291Z,-4.30
2022-12-13T04:16:20.678Z,-4.30
2022-12-13T04:18:50.766Z,-4.30
2022-12-13T04:21:18.867Z,-4.30
2022-12-13T04:23:46.930Z,-4.30
2022-12-13T04:26:15.063Z,-4.40
2022-12-13T04:28:43.306Z,-4.40
2022-12-13T04:31:11.503Z,-4.40
2022-12-13T04:33:39.704Z,-4.40
2022-12-13T04:36:10.051Z,-4.50
2022-12-13T04:38:38.145Z,-4.50
2022-12-13T04:41:08.207Z,-4.50
2022-12-13T04:43:36.319Z,-4.40
2022-12-13T04:46:04.459Z,-4.40
2022-12-13T04:48:33.464Z,-4.50
2022-12-13T04:51:02.291Z,-4.50
2022-12-13T04:53:32.042Z,-4.50
2022-12-13T04:56:00.212Z,-4.50
2022-12-13T04:58:29.302Z,-4.50
2022-12-13T05:00:57.586Z,-4.50
2022-12-13T05:03:25.743Z,-4.50
2022-12-13T05:05:53.812Z,-4.50
2022-12-13T05:08:22.071Z,-4.50
2022-12-13T05:10:51.549Z,-4.50
2022-12-13T05:13:19.657Z,-4.50
2022-12-13T05:15:52.168Z,-4.40
2022-12-13T05:18:23.200Z,-4.50
2022-12-13T05:20:52.076Z,-4.50
2022-12-13T05:23:22.459Z,-4.40
2022-12-13T05:25:52.680Z,-4.50
2022-12-13T05:28:28.139Z,-4.50
2022-12-13T05:30:58.444Z,-4.40
2022-12-13T05:33:27.506Z,-4.40
2022-12-13T05:36:00.005Z,-4.50
2022-12-13T05:38:31.455Z,-4.50
2022-12-13T05:41:02.335Z,-4.50
2022-12-13T05:43:42.337Z,-4.50
2022-12-13T05:46:12.224Z,-4.50
2022-12-13T05:48:40.496Z,-4.50
2022-12-13T05:51:09.971Z,-4.40
2022-12-13T05:53:40.503Z,-4.30
2022-12-13T05:56:11.201Z,-4.40
2022-12-13T05:58:42.901Z,-4.40
2022-12-13T06:01:12.907Z,-4.40
2022-12-13T06:03:41.686Z,-4.40
2022-12-13T06:06:11.924Z,-4.30
2022-12-13T06:08:40.601Z,-4.30
2022-12-13T06:11:12.247Z,-4.30
2022-12-13T06:13:43.481Z,-4.20
2022-12-13T06:16:22.011Z,-4.30
2022-12-13T06:19:00.965Z,-4.20
2022-12-13T06:21:39.156Z,-4.20
2022-12-13T06:24:14.723Z,-4.30
2022-12-13T06:26:45.001Z,-4.30
2022-12-13T06:29:23.800Z,-4.20
2022-12-13T06:32:01.780Z,-4.20
2022-12-13T06:34:32.904Z,-4.10
2022-12-13T06:37:01.264Z,-4.20
2022-12-13T06:39:32.287Z,-4.30
2022-12-13T06:42:21.664Z,-4.20
2022-12-13T06:44:56.016Z,-4.20
2022-12-13T06:47:31.916Z,-4.20
2022-12-13T06:50:05.622Z,-4.30
2022-12-13T06:52:34.309Z,-4.30
2022-12-13T06:55:02.423Z,-4.30
2022-12-13T06:57:33.902Z,-4.20
2022-12-13T07:00:03.435Z,-4.20
2022-12-13T07:02:32.670Z,-4.20
2022-12-13T07:05:00.908Z,-4.20
2022-12-13T07:07:29.711Z,-4.20
2022-12-13T07:09:58.129Z,-4.20
2022-12-13T07:12:26.211Z,-4.10
2022-12-13T07:14:56.273Z,-4.20
2022-12-13T07:17:33.256Z,-4.10
2022-12-13T07:20:04.595Z,-4.20
2022-12-13T07:22:35.033Z,-4.10
2022-12-13T07:25:05.278Z,-4.20
2022-12-13T07:27:33.944Z,-4.20
2022-12-13T07:30:03.680Z,-4.10
2022-12-13T07:32:31.872Z,-4.10
2022-12-13T07:34:59.986Z,-4.10
2022-12-13T07:37:30.202Z,-4.00
2022-12-13T07:40:04.041Z,-4.00
2022-12-13T07:42:32.913Z,-3.90
2022-12-13T07:45:01.129Z,-3.80
2022-12-13T07:47:32.272Z,-3.70
2022-12-13T07:50:01.666Z,-3.50
2022-12-13T07:52:30.065Z,-3.30
2022-12-13T07:54:58.188Z,-3.20
2022-12-13T07:57:26.386Z,-3.20
2022-12-13T07:59:54.441Z,-3.00
2022-12-13T08:02:22.608Z,-2.80
2022-12-13T08:04:54.532Z,-2.70
2022-12-13T08:07:23.319Z,-2.50
2022-12-13T08:09:53.247Z,-2.10
2022-12-13T08:12:22.561Z,-1.90
2022-12-13T08:14:53.090Z,-1.90
2022-12-13T08:17:21.898Z,-1.70
2022-12-13T08:19:51.327Z,-1.60
2022-12-13T08:22:24.159Z,-1.50
2022-12-13T08:24:52.731Z,-1.40
2022-12-13T08:27:20.833Z,-1.00
2022-12-13T08:29:48.947Z,-0.80
2022-12-13T08:32:17.095Z,-0.30
2022-12-13T08:34:45.555Z,0.10
2022-12-13T08:37:15.216Z,0.10
2022-12-13T08:39:44.559Z,0.30
2022-12-13T08:42:18.354Z,0.70
2022-12-13T08:44:48.907Z,1.00
2022-12-13T08:47:23.751Z,1.10
2022-12-13T08:49:55.095Z,1.10
2022-12-13T08:52:24.991Z,1.10
2022-12-13T08:54:53.329Z,1.10
2022-12-13T08:57:21.603Z,0.90
2022-12-13T08:59:49.675Z,0.90
2022-12-13T09:02:18.015Z,0.90
2022-12-13T09:04:46.267Z,0.90
2022-12-13T09:07:14.965Z,0.70
2022-12-13T09:09:44.417Z,0.70
2022-12-13T09:12:29.686Z,0.90
2022-12-13T09:15:01.596Z,1.10
2022-12-13T09:17:37.277Z,1.10
2022-12-13T09:20:10.319Z,1.30
2022-12-13T09:23:01.966Z,1.40
2022-12-13T09:25:37.146Z,1.30
2022-12-13T09:28:07.979Z,1.30
2022-12-13T09:30:36.390Z,1.20
2022-12-13T09:33:28.044Z,1.40
2022-12-13T09:35:53.172Z,1.50
2022-12-13T09:38:21.394Z,1.80
2022-12-13T09:40:58.332Z,1.80
2022-12-13T09:43:32.736Z,1.90
2022-12-13T09:46:13.259Z,1.80
2022-12-13T09:49:01.985Z,1.90
2022-12-13T09:51:43.570Z,2.40
2022-12-13T09:54:19.680Z,2.60
2022-12-13T09:56:51.224Z,2.40
2022-12-13T09:59:20.265Z,2.70
2022-12-13T10:01:48.614Z,2.40
2022-12-13T10:04:17.415Z,2.30
2022-12-13T10:06:45.530Z,2.40
2022-12-13T10:09:15.248Z,2.50
2022-12-13T10:11:52.295Z,2.70
2022-12-13T10:14:26.288Z,2.20
2022-12-13T10:16:57.891Z,2.10
2022-12-13T10:19:34.202Z,2.50
2022-12-13T10:22:04.449Z,2.60
2022-12-13T10:24:49.772Z,2.80
2022-12-13T10:27:21.414Z,2.90
2022-12-13T10:30:03.964Z,3.10
2022-12-13T10:32:37.833Z,2.90
2022-12-13T10:35:21.605Z,3.10
2022-12-13T10:37:49.786Z,2.70
2022-12-13T10:40:33.063Z,2.80
2022-12-13T10:43:14.276Z,2.80
2022-12-13T10:45:43.615Z,3.00
2022-12-13T10:48:21.519Z,3.30
2022-12-13T10:51:02.852Z,3.20
2022-12-13T10:53:34.238Z,3.30
2022-12-13T10:56:04.086Z,3.10
2022-12-13T10:58:41.865Z,3.30
2022-12-13T11:01:20.420Z,3.30
2022-12-13T11:04:02.721Z,3.10
2022-12-13T11:06:47.181Z,3.10
2022-12-13T11:09:22.784Z,3.00
2022-12-13T11:11:58.834Z,3.20
2022-12-13T11:14:32.736Z,3.60
2022-12-13T11:17:08.271Z,3.50
2022-12-13T11:19:41.809Z,3.80
2022-12-13T11:22:11.428Z,3.90
2022-12-13T11:24:42.315Z,3.90
2022-12-13T11:27:29.690Z,4.10
2022-12-13T11:30:16.134Z,4.30
2022-12-13T11:33:12.560Z,4.40
2022-12-13T11:35:54.636Z,4.00
2022-12-13T11:38:31.128Z,4.50
2022-12-13T11:41:04.160Z,4.60
2022-12-13T11:43:38.813Z,4.60
2022-12-13T11:46:17.149Z,4.50
2022-12-13T11:48:51.646Z,4.50
2022-12-13T11:51:27.486Z,4.70
2022-12-13T11:54:01.006Z,4.80
2022-12-13T11:56:32.285Z,4.50
2022-12-13T11:59:20.752Z,4.40
2022-12-13T12:02:04.809Z,4.50
2022-12-13T12:04:39.914Z,4.80
2022-12-13T12:07:31.919Z,4.70
2022-12-13T12:10:19.059Z,5.10
2022-12-13T12:12:51.722Z,5.40
2022-12-13T12:15:26.574Z,5.20
2022-12-13T12:18:00.823Z,5.60
2022-12-13T12:20:52.805Z,5.50
2022-12-13T12:23:40.037Z,5.10
2022-12-13T12:26:15.564Z,4.90
2022-12-13T12:29:02.251Z,4.40
2022-12-13T12:31:50.446Z,4.40
2022-12-13T12:34:31.074Z,4.00
2022-12-13T12:37:12.784Z,3.80
2022-12-13T12:39:48.468Z,3.50
2022-12-13T12:42:56.527Z,4.30
2022-12-13T12:45:56.251Z,4.80
2022-12-13T12:48:53.770Z,5.30
2022-12-13T12:51:35.411Z,5.40
2022-12-13T12:54:26.187Z,4.90
2022-12-13T12:57:07.569Z,4.80
2022-12-13T12:59:43.715Z,4.70
2022-12-13T13:02:20.020Z,4.40
2022-12-13T13:04:53.628Z,4.30
2022-12-13T13:07:28.302Z,4.10
2022-12-13T13:09:57.873Z,3.90
2022-12-13T13:12:45.540Z,3.80
2022-12-13T13:15:45.065Z,3.50
2022-12-13T13:18:44.515Z,3.40
2022-12-13T13:21:48.369Z,3.10
2022-12-13T13:24:24.004Z,2.60
2022-12-13T13:26:54.559Z,2.70
2022-12-13T13:29:31.219Z,2.90
2022-12-13T13:32:02.587Z,3.50
2022-12-13T13:34:32.897Z,3.20
2022-12-13T13:37:02.573Z,3.50
2022-12-13T13:39:58.619Z,3.50
2022-12-13T13:42:28.850Z,3.50
2022-12-13T13:45:23.612Z,3.00
2022-12-13T13:48:14.249Z,2.70
2022-12-13T13:51:49.450Z,3.00
2022-12-13T13:55:19.115Z,3.30
2022-12-13T13:58:24.232Z,4.10
2022-12-13T14:01:28.500Z,4.40
2022-12-13T14:04:51.770Z,4.80
2022-12-13T14:07:50.785Z,4.70
2022-12-13T14:10:32.834Z,3.80
2022-12-13T14:13:48.509Z,3.00
2022-12-13T14:16:46.592Z,2.60
2022-12-13T14:19:56.623Z,1.70
2022-12-13T14:22:33.731Z,1.30
2022-12-13T14:25:24.485Z,1.10
2022-12-13T14:28:00.847Z,1.00
2022-12-13T14:30:30.624Z,0.60
2022-12-13T14:32:59.392Z,0.60
2022-12-13T14:35:28.710Z,0.30
2022-12-13T14:37:59.066Z,0.10
2022-12-13T14:40:31.266Z,0.00
2022-12-13T14:43:00.009Z,-0.30
2022-12-13T14:48:01.345Z,-0.60
2022-12-13T14:50:34.173Z,-0.70
2022-12-13T14:53:03.276Z,-0.90
2022-12-13T14:55:33.519Z,-0.90
2022-12-13T14:58:03.851Z,-1.00
2022-12-13T15:00:36.863Z,-1.10
2022-12-13T15:03:05.790Z,-1.30
2022-12-13T15:05:48.849Z,-1.40
2022-12-13T15:08:21.461Z,-1.40
2022-12-13T15:10:52.158Z,-1.60
2022-12-13T15:13:29.369Z,-1.70
2022-12-13T15:16:01.870Z,-1.70
2022-12-13T15:18:38.957Z,-1.80
2022-12-13T15:21:21.577Z,-1.80
2022-12-13T15:23:50.536Z,-1.90
2022-12-13T15:26:28.853Z,-2.00
2022-12-13T15:29:00.756Z,-2.00
2022-12-13T15:31:34.353Z,-2.00
2022-12-13T15:34:28.989Z,-2.10
2022-12-13T15:36:58.995Z,-2.20
2022-12-13T15:39:31.116Z,-2.20
2022-12-13T15:42:00.824Z,-2.20
2022-12-13T15:44:31.415Z,-2.30
2022-12-13T15:47:05.210Z,-2.30
2022-12-13T15:49:36.520Z,-2.40
2022-12-13T15:52:07.245Z,-2.50
2022-12-13T15:54:35.550Z,-2.40
2022-12-13T15:57:13.674Z,-2.50
2022-12-13T15:59:43.136Z,-2.40
2022-12-13T16:02:18.090Z,-2.50
2022-12-13T16:04:46.366Z,-2.50
2022-12-13T16:07:23.884Z,-2.40
2022-12-13T16:09:53.610Z,-2.50
2022-12-13T16:12:27.187Z,-2.50
2022-12-13T16:15:13.973Z,-2.60
2022-12-13T16:18:07.655Z,-2.60
2022-12-13T16:20:36.288Z,-2.60
2022-12-13T16:23:08.875Z,-2.70
2022-12-13T16:25:37.440Z,-2.60
2022-12-13T16:28:05.853Z,-2.70
2022-12-13T16:31:03.891Z,-2.80
2022-12-13T16:33:33.779Z,-2.70
2022-12-13T16:36:02.152Z,-2.70
2022-12-13T16:38:30.227Z,-2.70
2022-12-13T16:41:08.740Z,-2.70
2022-12-13T16:43:41.172Z,-2.70
2022-12-13T16:47:12.821Z,-2.80
2022-12-13T16:49:09.992Z,-2.80
2022-12-13T16:51:39.620Z,-2.80
2022-12-13T16:54:10.105Z,-2.80
2022-12-13T16:56:38.263Z,-2.80
2022-12-13T16:59:06.385Z,-2.80
2022-12-13T17:01:34.589Z,-2.80
2022-12-13T17:04:10.924Z,-2.90
2022-12-13T17:06:41.452Z,-2.90
2022-12-13T17:09:09.637Z,-2.90
2022-12-13T17:11:38.557Z,-3.00
2022-12-13T17:14:06.937Z,-2.90
2022-12-13T17:16:35.089Z,-2.90
2022-12-13T17:19:04.750Z,-2.90
2022-12-13T17:21:33.175Z,-2.90
2022-12-13T17:24:03.364Z,-2.90
2022-12-13T17:26:32.025Z,-3.00
2022-12-13T17:29:00.127Z,-3.00
2022-12-13T17:31:34.984Z,-3.00
2022-12-13T17:34:05.430Z,-3.00
2022-12-13T17:36:33.870Z,-3.00
2022-12-13T17:39:02.139Z,-2.90
2022-12-13T17:41:30.659Z,-2.90
2022-12-13T17:44:00.851Z,-2.90
2022-12-13T17:46:29.111Z,-2.90
2022-12-13T17:48:57.384Z,-3.00
2022-12-13T17:51:26.893Z,-3.10
2022-12-13T17:53:55.386Z,-3.10
2022-12-13T17:56:23.505Z,-3.10
2022-12-13T17:58:51.714Z,-3.10
2022-12-13T18:01:21.853Z,-3.10
2022-12-13T18:03:52.673Z,-3.20
2022-12-13T18:06:20.770Z,-3.10
2022-12-13T18:08:50.583Z,-3.20
2022-12-13T18:11:35.879Z,-3.30
2022-12-13T18:14:05.172Z,-3.30
2022-12-13T18:16:38.392Z,-3.20
2022-12-13T18:19:08.230Z,-3.20
2022-12-13T18:21:37.420Z,-3.20
2022-12-13T18:24:08.141Z,-3.30
2022-12-13T18:26:36.341Z,-3.30
2022-12-13T18:29:05.138Z,-3.30
2022-12-13T18:31:33.648Z,-3.30
2022-12-13T18:34:01.989Z,-3.30
2022-12-13T18:36:30.326Z,-3.30
2022-12-13T18:38:58.536Z,-3.30
2022-12-13T18:41:30.027Z,-3.30
2022-12-13T18:44:00.274Z,-3.40
2022-12-13T18:46:29.425Z,-3.40
2022-12-13T18:48:58.005Z,-3.30
2022-12-13T18:51:26.869Z,-3.30
2022-12-13T18:53:56.205Z,-3.30
2022-12-13T18:56:25.900Z,-3.30
2022-12-13T18:58:55.940Z,-3.40
2022-12-13T19:01:27.060Z,-3.40
2022-12-13T19:03:55.503Z,-3.30
2022-12-13T19:06:25.127Z,-3.30
2022-12-13T19:08:55.601Z,-3.30
2022-12-13T19:11:25.921Z,-3.30
2022-12-13T19:13:56.102Z,-3.30
2022-12-13T19:16:25.797Z,-3.20
2022-12-13T19:18:54.147Z,-3.20
2022-12-13T19:21:23.314Z,-3.20
2022-12-13T19:23:57.368Z,-3.30
2022-12-13T19:26:26.645Z,-3.30
2022-12-13T19:28:58.285Z,-3.40
2022-12-13T19:31:31.615Z,-3.40
2022-12-13T19:34:09.750Z,-3.40
2022-12-13T19:36:43.923Z,-3.40
2022-12-13T19:39:12.873Z,-3.40
2022-12-13T19:41:41.166Z,-3.40
2022-12-13T19:44:10.751Z,-3.40
2022-12-13T19:46:38.983Z,-3.40
2022-12-13T19:49:07.166Z,-3.40
2022-12-13T19:51:39.696Z,-3.20
2022-12-13T19:54:08.242Z,-3.20
2022-12-13T19:56:36.449Z,-3.20
2022-12-13T19:59:05.245Z,-3.30
2022-12-13T20:01:34.978Z,-3.30
2022-12-13T20:04:03.150Z,-3.30
2022-12-13T20:06:31.488Z,-3.30
2022-12-13T20:08:59.766Z,-3.40
2022-12-13T20:11:27.870Z,-3.40
2022-12-13T20:13:57.911Z,-3.40
2022-12-13T20:16:27.594Z,-3.40
2022-12-13T20:18:58.621Z,-3.40
2022-12-13T20:21:27.833Z,-3.40
2022-12-13T20:23:56.440Z,-3.40
2022-12-13T20:26:26.311Z,-3.40
2022-12-13T20:28:54.467Z,-3.40
2022-12-13T20:31:24.742Z,-3.50
2022-12-13T20:33:57.288Z,-3.50
2022-12-13T20:36:27.078Z,-3.40
2022-12-13T20:38:56.992Z,-3.40
2022-12-13T20:41:26.951Z,-3.40
2022-12-13T20:43:57.006Z,-3.40
2022-12-13T20:46:26.874Z,-3.40
2022-12-13T20:48:57.850Z,-3.40
2022-12-13T20:51:27.448Z,-3.40
2022-12-13T20:53:56.520Z,-3.40
2022-12-13T20:56:26.212Z,-3.40
2022-12-13T20:58:54.402Z,-3.40
2022-12-13T21:01:24.124Z,-3.40
2022-12-13T21:03:54.672Z,-3.40
2022-12-13T21:06:24.861Z,-3.40
2022-12-13T21:08:53.937Z,-3.30
2022-12-13T21:11:26.563Z,-3.40
2022-12-13T21:14:00.990Z,-3.40
2022-12-13T21:16:33.562Z,-3.30
2022-12-13T21:19:02.230Z,-3.30
2022-12-13T21:21:31.960Z,-3.20
2022-12-13T21:24:10.988Z,-3.30
2022-12-13T21:26:39.131Z,-3.20
2022-12-13T21:29:10.590Z,-3.20
2022-12-13T21:31:41.208Z,-3.10
2022-12-13T21:34:10.060Z,-3.20
2022-12-13T21:36:41.834Z,-3.20
2022-12-13T21:39:13.911Z,-3.20
2022-12-13T21:41:42.892Z,-3.20
2022-12-13T21:44:12.350Z,-3.20
2022-12-13T21:49:42.128Z,-3.20
2022-12-13T21:52:18.637Z,-3.20
2022-12-13T21:54:47.222Z,-3.10
2022-12-13T21:57:33.752Z,-3.20
2022-12-13T22:00:02.367Z,-3.20
2022-12-13T22:02:33.342Z,-3.20
2022-12-13T22:05:01.990Z,-3.20
2022-12-13T22:07:34.190Z,-3.20
2022-12-13T22:10:03.101Z,-3.20
2022-12-13T22:12:34.775Z,-3.20
2022-12-13T22:15:04.668Z,-3.20
2022-12-13T22:17:35.990Z,-3.20
2022-12-13T22:20:06.477Z,-3.20
2022-12-13T22:22:37.573Z,-3.20
2022-12-13T22:25:07.209Z,-3.20
2022-12-13T22:27:36.061Z,-3.20
2022-12-13T22:30:07.380Z,-3.10
2022-12-13T22:32:36.013Z,-3.10
2022-12-13T22:35:12.005Z,-3.10
2022-12-13T22:37:42.352Z,-3.10
2022-12-13T22:40:12.294Z,-3.10
2022-12-13T22:42:40.961Z,-3.10
2022-12-13T22:45:10.095Z,-3.10
2022-12-13T22:47:38.543Z,-3.10
2022-12-13T22:50:08.456Z,-3.00
2022-12-13T22:52:38.215Z,-3.00
2022-12-13T22:55:09.276Z,-3.00
2022-12-13T22:57:38.140Z,-3.00
2022-12-13T23:00:10.268Z,-3.00
2022-12-13T23:02:39.462Z,-3.00
2022-12-13T23:05:09.100Z,-2.90
2022-12-13T23:07:38.119Z,-2.90
2022-12-13T23:10:30.109Z,-2.90
2022-12-13T23:13:03.832Z,-2.90
2022-12-13T23:15:32.672Z,-2.90
2022-12-13T23:18:04.183Z,-2.90
2022-12-13T23:20:34.736Z,-2.90
2022-12-13T23:23:03.455Z,-2.90
2022-12-13T23:25:33.330Z,-2.90
2022-12-13T23:28:01.723Z,-2.90
2022-12-13T23:30:30.475Z,-2.90
2022-12-13T23:32:59.294Z,-2.90
2022-12-13T23:35:36.505Z,-2.90
2022-12-13T23:38:06.294Z,-2.90
2022-12-13T23:40:37.531Z,-2.90
2022-12-13T23:43:07.442Z,-2.90
2022-12-13T23:45:37.432Z,-2.90
2022-12-13T23:48:06.383Z,-2.90
2022-12-13T23:50:36.324Z,-2.90
2022-12-13T23:53:04.984Z,-2.90
2022-12-13T23:55:36.904Z,-2.90
2022-12-13T23:58:07.825Z,-2.90
